Hovedside
METAR-TAF:

METAR-TAF

Lufthavner :

Lord Howe-øya, Australia

breddegrad: 31-32-18S, lengdegrad: 159-04-38E, høyde over havet: 5 m

Gjeldene værobservasjon

Denne rapporten ble laget for 23 minutter siden, klokken 02:00 UTC
Vind 15 kt fra Vest
Temperatur 21°C
Luftfuktighet 60%
Trykk 1016 hPa
Sikt 10 km eller mer
Få skyer i en høyde av 3200 ft

METAR: YLHI 200200Z 27015KT 9999 FEW032 21/13 Q1016

Tid: 12:23 (02:23 UTC)

Varsel

Denne rapporten ble laget for 2 timer og 48 minutter siden, klokken 23:35 UTC
Varsel gyldig fra 20. klokken 00 UTC til 21. klokken 00 UTC
Vind 14 kt fra Vest-sørvest
Sikt 10 km eller mer
Spredte skyer i en høyde av 3500 ft
lette regnbyger
Fra 20. klokken 0300 UTC
Vind 8 kt fra Vest
Sikt 10 km eller mer
Spredte skyer i en høyde av 4000 ft
Fra 20. klokken 1800 UTC
Vind 12 kt fra Nord-nordvest
Sikt 10 km eller mer
Spredte skyer i en høyde av 4000 ft

TAF: YLHI 192335Z 2000/2100 25014KT 9999 -SHRA SCT035 FM200300 27008KT 9999 NSW SCT040 FM201800 33012KT 9999 SCT040

Værobservasjoner og værvarsel for over 4000 flyplasser (METAR- og TAF-rapporter).

Tilgjengelige stasjoner er representert av de røde og gule prikkene på kartet.

Hold musepekeren over prikken for å se navnet på stasjonen.

Klikk så for å se værobservasjoner og -varsler.

For å forandre kartet kan du klikke på den grønne knappen med svart kryss for å zoome inn, på den grønne knappen med strek for å zoome ut, eller på de grønne pilene for å se tilstøtende kart.


METAR-TAF: